PWSweather.com
Personal Weather Stations
Station Observations
IROGLAN40
AalgaardNO 4330

AalgaardNO 4330

Lat: 58.773, Lon: 5.846

Elevation: 326

Station Type: Davis Vanatge Pro2

Latest ConditionsUpdated 7:10:02 AM GMT+01:01 Friday, Jan 30, 2015
Currently Today's Max Today's Min Today's Average
Temperature 35.1°F1.7°C 36.5°F2.5°C 34.8°F1.6°C 35.6°F2.0°C
Dew Point 32.2°F0.1°C 33.6°F0.9°C 31.9°F-0.1°C 32.9°F0.5°C
Winds 3.1 mph S5.0 kmh S 7.5 mph SE12.1 kmh SE - 4.8 mph 7.7 kmh
Wind Gusts 5.0 mph8.0 kmh 15.0 mph24.1 kmh - -
Humidity 89% 92% 88% 90%
Pressure 28.55 in966.8 mb 28.55 in966.8 mb 28.53 in966.1 mb -
Precipitation - 0.10 in2.5 mm - -
Hour Temp Dew Point Humidity Winds Wind Gusts Pressure Precip Precip Rate Daily Precip Total
07:10 AM 35.1°F1.7°C 32.2°F0.1°C 89% 3.1 mph S5.0 kmh S 5.0 mph8.0 kmh 28.55 in966.8 mb 0.01 in0.3 mm 0.06 in/hr1.5 mm/hr 0.10 in2.5 mm
07:00 AM 35.3°F1.8°C 32.4°F0.2°C 89% 6.1 mph S9.8 kmh S 11.0 mph17.7 kmh 28.55 in966.8 mb 0.01 in0.3 mm 0.01 in/hr0.3 mm/hr 0.09 in2.3 mm
06:50 AM 35.5°F1.9°C 32.6°F0.3°C 89% 6.6 mph SSE10.6 kmh SSE 9.0 mph14.5 kmh 28.55 in966.8 mb 0.00 in0.0 mm 0.00 in/hr0.0 mm/hr 0.09 in2.3 mm
06:40 AM 35.7°F2.1°C 32.5°F0.3°C 88% 6.4 mph SE10.3 kmh SE 9.0 mph14.5 kmh 28.54 in966.5 mb 0.00 in0.0 mm 0.00 in/hr0.0 mm/hr 0.09 in2.3 mm
06:30 AM 36.1°F2.3°C 32.9°F0.5°C 88% 4.6 mph SE7.4 kmh SE 9.0 mph14.5 kmh 28.54 in966.5 mb 0.01 in0.3 mm 0.06 in/hr1.5 mm/hr 0.09 in2.3 mm
06:20 AM 36.0°F2.2°C 33.1°F0.6°C 89% 6.3 mph S10.1 kmh S 11.0 mph17.7 kmh 28.54 in966.5 mb 0.00 in0.0 mm 0.00 in/hr0.0 mm/hr 0.08 in2.0 mm
06:10 AM 35.7°F2.1°C 32.8°F0.4°C 89% 7.5 mph SE12.1 kmh SE 9.0 mph14.5 kmh 28.54 in966.5 mb 0.01 in0.3 mm 0.06 in/hr1.5 mm/hr 0.08 in2.0 mm
06:00 AM 35.6°F2.0°C 32.6°F0.3°C 89% 5.4 mph SE8.7 kmh SE 8.0 mph12.9 kmh 28.54 in966.5 mb 0.00 in0.0 mm 0.00 in/hr0.0 mm/hr 0.07 in1.8 mm
05:50 AM 35.4°F1.9°C 32.5°F0.3°C 89% 5.8 mph SE9.3 kmh SE 10.0 mph16.1 kmh 28.54 in966.5 mb 0.00 in0.0 mm 0.00 in/hr0.0 mm/hr 0.07 in1.8 mm
05:40 AM 35.4°F1.9°C 32.5°F0.3°C 89% 4.6 mph SE7.4 kmh SE 8.0 mph12.9 kmh 28.54 in966.5 mb 0.00 in0.0 mm 0.00 in/hr0.0 mm/hr 0.07 in1.8 mm
05:30 AM 35.6°F2.0°C 32.7°F0.4°C 89% 7.0 mph SE11.3 kmh SE 13.0 mph20.9 kmh 28.54 in966.5 mb 0.01 in0.3 mm 0.06 in/hr1.5 mm/hr 0.07 in1.8 mm
05:20 AM 36.1°F2.3°C 33.2°F0.7°C 89% 5.8 mph SSE9.3 kmh SSE 8.0 mph12.9 kmh 28.54 in966.5 mb 0.01 in0.3 mm 0.06 in/hr1.5 mm/hr 0.06 in1.5 mm
05:10 AM 36.4°F2.4°C 33.5°F0.8°C 89% 6.4 mph S10.3 kmh S 10.0 mph16.1 kmh 28.54 in966.5 mb 0.00 in0.0 mm 0.00 in/hr0.0 mm/hr 0.06 in1.5 mm
05:00 AM 36.3°F2.4°C 33.4°F0.8°C 89% 3.5 mph SE5.6 kmh SE 7.0 mph11.3 kmh 28.53 in966.1 mb 0.00 in0.0 mm 0.00 in/hr0.0 mm/hr 0.06 in1.5 mm
04:50 AM 36.1°F2.3°C 33.4°F0.8°C 90% 5.1 mph SE8.2 kmh SE 13.0 mph20.9 kmh 28.54 in966.5 mb 0.01 in0.3 mm 0.06 in/hr1.5 mm/hr 0.06 in1.5 mm
04:40 AM 35.9°F2.2°C 33.3°F0.7°C 90% 4.9 mph SE7.9 kmh SE 9.0 mph14.5 kmh 28.54 in966.5 mb 0.01 in0.3 mm 0.06 in/hr1.5 mm/hr 0.06 in1.5 mm
04:30 AM 35.7°F2.1°C 33.1°F0.6°C 90% 4.9 mph S7.9 kmh S 8.0 mph12.9 kmh 28.54 in966.5 mb 0.00 in0.0 mm 0.00 in/hr0.0 mm/hr 0.05 in1.3 mm
04:20 AM 35.6°F2.0°C 33.0°F0.6°C 90% 5.8 mph S9.3 kmh S 7.0 mph11.3 kmh 28.54 in966.5 mb 0.00 in0.0 mm 0.00 in/hr0.0 mm/hr 0.05 in1.3 mm
04:10 AM 35.4°F1.9°C 32.8°F0.4°C 90% 2.9 mph SE4.7 kmh SE 7.0 mph11.3 kmh 28.53 in966.1 mb 0.01 in0.3 mm 0.06 in/hr1.5 mm/hr 0.05 in1.3 mm
04:00 AM 35.3°F1.8°C 32.7°F0.4°C 90% 4.2 mph S6.8 kmh S 9.0 mph14.5 kmh 28.54 in966.5 mb 0.00 in0.0 mm 0.00 in/hr0.0 mm/hr 0.04 in1.0 mm
03:50 AM 34.9°F1.6°C 32.0°F0.0°C 89% 4.7 mph SE7.6 kmh SE 6.0 mph9.7 kmh 28.54 in966.5 mb 0.00 in0.0 mm 0.00 in/hr0.0 mm/hr 0.04 in1.0 mm
03:40 AM 34.8°F1.6°C 31.9°F-0.1°C 89% 5.9 mph SE9.5 kmh SE 10.0 mph16.1 kmh 28.54 in966.5 mb 0.01 in0.3 mm 0.06 in/hr1.5 mm/hr 0.04 in1.0 mm
03:30 AM 35.1°F1.7°C 32.2°F0.1°C 89% 4.1 mph SSE6.6 kmh SSE 15.0 mph24.1 kmh 28.55 in966.8 mb 0.01 in0.3 mm 0.06 in/hr1.5 mm/hr 0.03 in0.8 mm
03:20 AM 36.2°F2.3°C 33.3°F0.7°C 89% 7.5 mph S12.1 kmh S 13.0 mph20.9 kmh 28.55 in966.8 mb 0.00 in0.0 mm 0.00 in/hr0.0 mm/hr 0.02 in0.5 mm
03:10 AM 36.5°F2.5°C 33.6°F0.9°C 89% 5.2 mph SE8.4 kmh SE 10.0 mph16.1 kmh 28.54 in966.5 mb 0.00 in0.0 mm 0.00 in/hr0.0 mm/hr 0.02 in0.5 mm
03:00 AM 36.3°F2.4°C 33.3°F0.7°C 89% 5.4 mph SE8.7 kmh SE 7.0 mph11.3 kmh 28.54 in966.5 mb 0.01 in0.3 mm 0.01 in/hr0.3 mm/hr 0.02 in0.5 mm
02:50 AM 36.1°F2.3°C 33.2°F0.7°C 89% 5.2 mph SE8.4 kmh SE 7.0 mph11.3 kmh 28.54 in966.5 mb 0.00 in0.0 mm 0.00 in/hr0.0 mm/hr 0.02 in0.5 mm
02:40 AM 36.0°F2.2°C 33.4°F0.8°C 90% 4.0 mph SE6.4 kmh SE 9.0 mph14.5 kmh 28.54 in966.5 mb 0.00 in0.0 mm 0.00 in/hr0.0 mm/hr 0.02 in0.5 mm
02:30 AM 35.7°F2.1°C 33.1°F0.6°C 90% 4.4 mph SE7.1 kmh SE 8.0 mph12.9 kmh 28.53 in966.1 mb 0.01 in0.3 mm 0.06 in/hr1.5 mm/hr 0.02 in0.5 mm
02:20 AM 35.6°F2.0°C 33.2°F0.7°C 91% 3.2 mph SSW5.1 kmh SSW 7.0 mph11.3 kmh 28.53 in966.1 mb 0.00 in0.0 mm 0.00 in/hr0.0 mm/hr 0.01 in0.3 mm
02:10 AM 35.6°F2.0°C 33.2°F0.7°C 91% 3.7 mph SSE6.0 kmh SSE 6.0 mph9.7 kmh 28.53 in966.1 mb 0.00 in0.0 mm 0.00 in/hr0.0 mm/hr 0.01 in0.3 mm
02:00 AM 35.5°F1.9°C 33.1°F0.6°C 91% 5.2 mph ESE8.4 kmh ESE 8.0 mph12.9 kmh 28.53 in966.1 mb 0.00 in0.0 mm 0.00 in/hr0.0 mm/hr 0.01 in0.3 mm
01:50 AM 35.3°F1.8°C 32.9°F0.5°C 91% 4.9 mph SE7.9 kmh SE 10.0 mph16.1 kmh 28.53 in966.1 mb 0.00 in0.0 mm 0.00 in/hr0.0 mm/hr 0.01 in0.3 mm
01:40 AM 35.2°F1.8°C 32.8°F0.4°C 91% 3.6 mph SE5.8 kmh SE 6.0 mph9.7 kmh 28.53 in966.1 mb 0.01 in0.3 mm 0.06 in/hr1.5 mm/hr 0.01 in0.3 mm
01:30 AM 35.3°F1.8°C 32.9°F0.5°C 91% 2.3 mph ESE3.7 kmh ESE 6.0 mph9.7 kmh 28.53 in966.1 mb 0.01 in0.3 mm 0.06 in/hr1.5 mm/hr 0.01 in0.3 mm
01:20 AM 35.4°F1.9°C 33.0°F0.6°C 91% 5.4 mph SE8.7 kmh SE 9.0 mph14.5 kmh 28.53 in966.1 mb 0.00 in0.0 mm 0.00 in/hr0.0 mm/hr 0.00 in0.0 mm
01:10 AM 35.2°F1.8°C 32.8°F0.4°C 91% 3.3 mph SE5.3 kmh SE 5.0 mph8.0 kmh 28.53 in966.1 mb 0.00 in0.0 mm 0.00 in/hr0.0 mm/hr 0.00 in0.0 mm
01:00 AM 35.2°F1.8°C 32.8°F0.4°C 91% 1.9 mph ESE3.1 kmh ESE 3.0 mph4.8 kmh 28.53 in966.1 mb 0.00 in0.0 mm 0.00 in/hr0.0 mm/hr 0.00 in0.0 mm
12:50 AM 35.2°F1.8°C 32.8°F0.4°C 91% 4.2 mph SE6.8 kmh SE 7.0 mph11.3 kmh 28.53 in966.1 mb 0.00 in0.0 mm 0.00 in/hr0.0 mm/hr 0.00 in0.0 mm
12:40 AM 35.1°F1.7°C 32.8°F0.4°C 91% 4.7 mph SE7.6 kmh SE 7.0 mph11.3 kmh 28.53 in966.1 mb 0.00 in0.0 mm 0.00 in/hr0.0 mm/hr 0.00 in0.0 mm
12:30 AM 35.3°F1.8°C 32.9°F0.5°C 91% 4.2 mph SE6.8 kmh SE 8.0 mph12.9 kmh 28.53 in966.1 mb 0.00 in0.0 mm 0.00 in/hr0.0 mm/hr 0.00 in0.0 mm
12:20 AM 35.3°F1.8°C 33.2°F0.7°C 92% 4.1 mph SE6.6 kmh SE 7.0 mph11.3 kmh 28.53 in966.1 mb 0.00 in0.0 mm 0.00 in/hr0.0 mm/hr 0.00 in0.0 mm
12:10 AM 35.1°F1.7°C 33.0°F0.6°C 92% 2.4 mph SSE3.9 kmh SSE 4.0 mph6.4 kmh 28.53 in966.1 mb 0.00 in0.0 mm 0.00 in/hr0.0 mm/hr 0.00 in0.0 mm
12:00 AM 35.0°F1.7°C 32.9°F0.5°C 92% 2.9 mph SE4.7 kmh SE 4.0 mph6.4 kmh 28.53 in966.1 mb 0.00 in0.0 mm 0.00 in/hr0.0 mm/hr 0.00 in0.0 mm